Aviation Digital Data Service (ADDS)

Output produced by METARs form (0020 UTC 23 September 2017)
found at http://aviationweather.gov/adds/metars/
 
KEKN 222320Z 2300/2324 35004KT P6SM SCT250 
     FM230400 00000KT 5SM BR FEW250 
     TEMPO 2304/2306 2SM BR 
     FM230600 00000KT 1/4SM FG VV001 
     FM231200 00000KT 2SM BR BKN002 
     FM231330 00000KT 5SM BR SCT002 
     FM231400 05003KT P6SM FEW250